Savage Opportunity — WDG6313 — position and weather

sailwx.info

Track history (hours):
 
Tides and Currents Weather Stations Pressure Air Temp Water Temp Dewpoint Dewpoint Depression Visibility Wind Speed Wind Dir Waves Ship Positions

Savage Opportunity

Owner: Savage Inland Marine, Gibson, LA. More information available from US FCC via Universal Licensing System and Coast Guard Vessel Documentation Center.

Last reported at 2017-Nov-18 17:30 UTC. Time now 2017-Nov-18 17:58 UTC.
Position N 29°56' W 093°10'.

Length 25 m.

Type: Other ship. MMSI: 367555670.

Date/timePositionNaut miles runAvg speedWind from/ knotsBaromVisibWave heightAir tempDewpointWater temp
2017-Nov-18 17:30N 29°56' W 093°10'3 5.0
2017-Nov-18 17:00N 29°56' W 093°07'39 4.8
2017-Nov-18 08:44N 29°51' W 092°22'1 4.8
2017-Nov-18 08:30N 29°51' W 092°20'2 4.8
2017-Nov-18 08:00N 29°50' W 092°18'2 4.2
2017-Nov-18 07:30N 29°49' W 092°16'3 5.4
2017-Nov-18 07:00N 29°47' W 092°13'1 2.3
2017-Nov-18 06:30N 29°47' W 092°12'1 1.4
2017-Nov-18 06:00N 29°47' W 092°11'0 0.7
2017-Nov-18 05:30N 29°47' W 092°11'0 0.1
2017-Nov-18 05:00N 29°47' W 092°11'1 1.6
2017-Nov-18 04:30N 29°47' W 092°10'3 5.1
2017-Nov-18 04:00N 29°47' W 092°07'3 5.3
2017-Nov-18 03:29N 29°48' W 092°04'60 2.2
2017-Nov-16 23:37N 29°34' W 090°57'1 6.5
2017-Nov-16 23:30N 29°34' W 090°56'3 0.2
2017-Nov-16 04:57N 29°32' W 090°52'1 2.7
2017-Nov-16 04:29N 29°33' W 090°54'57 5.8
2017-Nov-15 18:44N 29°51' W 091°56'2 6.9
2017-Nov-15 18:30N 29°50' W 091°57'4 7.5
2017-Nov-15 18:00N 29°49' W 092°01'3 6.9
2017-Nov-15 17:30N 29°48' W 092°05'3 6.8
2017-Nov-15 17:00N 29°47' W 092°09'3 5.6
2017-Nov-15 16:30N 29°47' W 092°12'0 0.9
2017-Nov-15 16:00N 29°47' W 092°13'1 1.4
2017-Nov-15 15:30N 29°48' W 092°13'1 2.9
2017-Nov-15 15:00N 29°48' W 092°15'3 6.4
2017-Nov-15 14:30N 29°50' W 092°18'3 6.4
2017-Nov-15 14:00N 29°51' W 092°21'31 5.6
2017-Nov-15 08:27N 29°56' W 092°57'3 6.4
2017-Nov-15 08:00N 29°56' W 092°60'3 6.5
2017-Nov-15 07:30N 29°56' W 093°04'3 5.7
2017-Nov-15 07:00N 29°56' W 093°07'3 5.9
2017-Nov-15 06:30N 29°57' W 093°10'3 6.6
2017-Nov-15 06:00N 29°59' W 093°13'3 6.0
2017-Nov-15 05:30N 30°02' W 093°15'2 4.9
2017-Nov-15 05:00N 30°04' W 093°16'2 4.0
2017-Nov-15 04:30N 30°05' W 093°18'1 1.5
2017-Nov-15 04:00N 30°06' W 093°18'0 0.4
2017-Nov-15 03:30N 30°06' W 093°18'0 0.1
2017-Nov-15 03:00N 30°06' W 093°18'0 0.0
2017-Nov-15 02:30N 30°06' W 093°18'0 0.1
2017-Nov-15 02:00N 30°06' W 093°18'0 0.2
2017-Nov-15 01:30N 30°06' W 093°18'0 0.8
2017-Nov-15 01:00N 30°06' W 093°19'0 0.0
2017-Nov-15 00:30N 30°06' W 093°19'2 3.2
2017-Nov-15 00:00N 30°05' W 093°20'2 4.2
2017-Nov-14 23:30N 30°04' W 093°22'0 0.3
2017-Nov-14 23:00N 30°04' W 093°22'0 0.7
2017-Nov-14 22:30N 30°04' W 093°22'0 0.3
2017-Nov-14 22:00N 30°04' W 093°22'0 0.7
2017-Nov-14 21:30N 30°04' W 093°22'1 2.1
2017-Nov-14 21:00N 30°04' W 093°21'3 5.2
2017-Nov-14 20:30N 30°06' W 093°20'2 3.6
2017-Nov-14 20:00N 30°08' W 093°19'0 0.0
2017-Nov-14 19:30N 30°08' W 093°19'0 0.0
2017-Nov-14 19:00N 30°08' W 093°19'0 0.0
2017-Nov-14 18:30N 30°08' W 093°19'0 0.0
2017-Nov-14 18:00N 30°08' W 093°19'0 0.0
2017-Nov-14 17:30N 30°08' W 093°19'0 0.0
2017-Nov-14 17:00N 30°08' W 093°19'0 0.0
2017-Nov-14 16:30N 30°08' W 093°19'0 0.0
2017-Nov-14 16:00N 30°08' W 093°19'0 0.0
2017-Nov-14 15:30N 30°08' W 093°19'0 0.0
2017-Nov-14 15:00N 30°08' W 093°19'0 0.0
2017-Nov-14 14:30N 30°08' W 093°19'0 0.0
2017-Nov-14 13:59N 30°08' W 093°19'0 0.0
2017-Nov-14 13:30N 30°08' W 093°19'0 0.0
2017-Nov-14 13:00N 30°08' W 093°19'0 0.0
2017-Nov-14 12:30N 30°08' W 093°19'0 0.0
2017-Nov-14 11:37N 30°08' W 093°19'0 0.0
2017-Nov-14 11:23N 30°08' W 093°19'0 0.0
2017-Nov-14 10:59N 30°08' W 093°19'0 0.0
2017-Nov-14 10:29N 30°08' W 093°19'12 0.3
2017-Nov-12 13:13N 30°04' W 093°32'2 7.3
2017-Nov-12 12:59N 30°04' W 093°30'5 7.2
2017-Nov-12 12:21N 30°04' W 093°25'3 5.5
2017-Nov-12 11:53N 30°04' W 093°22'54 1.4
2017-Nov-10 19:57N 29°51' W 092°21'1 2.8
2017-Nov-10 19:29N 29°51' W 092°20'2 3.4
2017-Nov-10 18:59N 29°50' W 092°18'3 5.3
2017-Nov-10 18:29N 29°48' W 092°16'3 5.5
2017-Nov-10 17:59N 29°47' W 092°13'1 2.6
2017-Nov-10 17:29N 29°47' W 092°12'0 0.6
2017-Nov-10 16:59N 29°47' W 092°11'1 1.8
2017-Nov-10 16:30N 29°47' W 092°10'3 5.1
2017-Nov-10 16:00N 29°47' W 092°07'3 5.4
2017-Nov-10 15:30N 29°48' W 092°04'3 5.2
2017-Nov-10 15:00N 29°49' W 092°02'3 5.3
2017-Nov-10 14:29N 29°50' W 091°59'4 0.1
2017-Nov-08 23:53N 29°51' W 091°54'3 7.0
2017-Nov-08 23:30N 29°50' W 091°57'0 0.1
2017-Nov-08 23:00N 29°50' W 091°57'0 0.5
2017-Nov-08 22:30N 29°50' W 091°58'3 5.7
2017-Nov-08 22:00N 29°49' W 092°01'3 6.9
2017-Nov-08 21:30N 29°48' W 092°05'3 6.6
2017-Nov-08 21:00N 29°47' W 092°08'3 5.2
2017-Nov-08 20:30N 29°47' W 092°11'0 0.0
2017-Nov-08 20:00N 29°47' W 092°11'2 4.0
2017-Nov-08 19:30N 29°47' W 092°13'3 5.7
2017-Nov-08 19:00N 29°49' W 092°16'3 6.0
2017-Nov-08 18:30N 29°50' W 092°19'  
Track history (hours):
 
Tides and Currents Weather Stations Pressure Air Temp Water Temp Dewpoint Dewpoint Depression Visibility Wind Speed Wind Dir Waves Ship Positions

Savage Opportunity

Owner: Savage Inland Marine, Gibson, LA. More information available from US FCC via Universal Licensing System and Coast Guard Vessel Documentation Center.

Last reported at 2017-Nov-18 17:30 UTC. Time now 2017-Nov-18 17:58 UTC.
Position N 29°56' W 093°10'.

Length 25 m.

Type: Other ship. MMSI: 367555670.

Date/timePositionNaut miles runAvg speedWind from/ knotsBaromVisibWave heightAir tempDewpointWater temp
2017-Nov-18 17:30N 29°56' W 093°10'3 5.0
2017-Nov-18 17:00N 29°56' W 093°07'39 4.8
2017-Nov-18 08:44N 29°51' W 092°22'1 4.8
2017-Nov-18 08:30N 29°51' W 092°20'2 4.8
2017-Nov-18 08:00N 29°50' W 092°18'2 4.2
2017-Nov-18 07:30N 29°49' W 092°16'3 5.4
2017-Nov-18 07:00N 29°47' W 092°13'1 2.3
2017-Nov-18 06:30N 29°47' W 092°12'1 1.4
2017-Nov-18 06:00N 29°47' W 092°11'0 0.7
2017-Nov-18 05:30N 29°47' W 092°11'0 0.1
2017-Nov-18 05:00N 29°47' W 092°11'1 1.6
2017-Nov-18 04:30N 29°47' W 092°10'3 5.1
2017-Nov-18 04:00N 29°47' W 092°07'3 5.3
2017-Nov-18 03:29N 29°48' W 092°04'60 2.2
2017-Nov-16 23:37N 29°34' W 090°57'1 6.5
2017-Nov-16 23:30N 29°34' W 090°56'3 0.2
2017-Nov-16 04:57N 29°32' W 090°52'1 2.7
2017-Nov-16 04:29N 29°33' W 090°54'57 5.8
2017-Nov-15 18:44N 29°51' W 091°56'2 6.9
2017-Nov-15 18:30N 29°50' W 091°57'4 7.5
2017-Nov-15 18:00N 29°49' W 092°01'3 6.9
2017-Nov-15 17:30N 29°48' W 092°05'3 6.8
2017-Nov-15 17:00N 29°47' W 092°09'3 5.6
2017-Nov-15 16:30N 29°47' W 092°12'0 0.9
2017-Nov-15 16:00N 29°47' W 092°13'1 1.4
2017-Nov-15 15:30N 29°48' W 092°13'1 2.9
2017-Nov-15 15:00N 29°48' W 092°15'3 6.4
2017-Nov-15 14:30N 29°50' W 092°18'3 6.4
2017-Nov-15 14:00N 29°51' W 092°21'31 5.6
2017-Nov-15 08:27N 29°56' W 092°57'3 6.4
2017-Nov-15 08:00N 29°56' W 092°60'3 6.5
2017-Nov-15 07:30N 29°56' W 093°04'3 5.7
2017-Nov-15 07:00N 29°56' W 093°07'3 5.9
2017-Nov-15 06:30N 29°57' W 093°10'3 6.6
2017-Nov-15 06:00N 29°59' W 093°13'3 6.0
2017-Nov-15 05:30N 30°02' W 093°15'2 4.9
2017-Nov-15 05:00N 30°04' W 093°16'2 4.0
2017-Nov-15 04:30N 30°05' W 093°18'1 1.5
2017-Nov-15 04:00N 30°06' W 093°18'0 0.4
2017-Nov-15 03:30N 30°06' W 093°18'0 0.1
2017-Nov-15 03:00N 30°06' W 093°18'0 0.0
2017-Nov-15 02:30N 30°06' W 093°18'0 0.1
2017-Nov-15 02:00N 30°06' W 093°18'0 0.2
2017-Nov-15 01:30N 30°06' W 093°18'0 0.8
2017-Nov-15 01:00N 30°06' W 093°19'0 0.0
2017-Nov-15 00:30N 30°06' W 093°19'2 3.2
2017-Nov-15 00:00N 30°05' W 093°20'2 4.2
2017-Nov-14 23:30N 30°04' W 093°22'0 0.3
2017-Nov-14 23:00N 30°04' W 093°22'0 0.7
2017-Nov-14 22:30N 30°04' W 093°22'0 0.3
2017-Nov-14 22:00N 30°04' W 093°22'0 0.7
2017-Nov-14 21:30N 30°04' W 093°22'1 2.1
2017-Nov-14 21:00N 30°04' W 093°21'3 5.2
2017-Nov-14 20:30N 30°06' W 093°20'2 3.6
2017-Nov-14 20:00N 30°08' W 093°19'0 0.0
2017-Nov-14 19:30N 30°08' W 093°19'0 0.0
2017-Nov-14 19:00N 30°08' W 093°19'0 0.0
2017-Nov-14 18:30N 30°08' W 093°19'0 0.0
2017-Nov-14 18:00N 30°08' W 093°19'0 0.0
2017-Nov-14 17:30N 30°08' W 093°19'0 0.0
2017-Nov-14 17:00N 30°08' W 093°19'0 0.0
2017-Nov-14 16:30N 30°08' W 093°19'0 0.0
2017-Nov-14 16:00N 30°08' W 093°19'0 0.0
2017-Nov-14 15:30N 30°08' W 093°19'0 0.0
2017-Nov-14 15:00N 30°08' W 093°19'0 0.0
2017-Nov-14 14:30N 30°08' W 093°19'0 0.0
2017-Nov-14 13:59N 30°08' W 093°19'0 0.0
2017-Nov-14 13:30N 30°08' W 093°19'0 0.0
2017-Nov-14 13:00N 30°08' W 093°19'0 0.0
2017-Nov-14 12:30N 30°08' W 093°19'0 0.0
2017-Nov-14 11:37N 30°08' W 093°19'0 0.0
2017-Nov-14 11:23N 30°08' W 093°19'0 0.0
2017-Nov-14 10:59N 30°08' W 093°19'0 0.0
2017-Nov-14 10:29N 30°08' W 093°19'12 0.3
2017-Nov-12 13:13N 30°04' W 093°32'2 7.3
2017-Nov-12 12:59N 30°04' W 093°30'5 7.2
2017-Nov-12 12:21N 30°04' W 093°25'3 5.5
2017-Nov-12 11:53N 30°04' W 093°22'54 1.4
2017-Nov-10 19:57N 29°51' W 092°21'1 2.8
2017-Nov-10 19:29N 29°51' W 092°20'2 3.4
2017-Nov-10 18:59N 29°50' W 092°18'3 5.3
2017-Nov-10 18:29N 29°48' W 092°16'3 5.5
2017-Nov-10 17:59N 29°47' W 092°13'1 2.6
2017-Nov-10 17:29N 29°47' W 092°12'0 0.6
2017-Nov-10 16:59N 29°47' W 092°11'1 1.8
2017-Nov-10 16:30N 29°47' W 092°10'3 5.1
2017-Nov-10 16:00N 29°47' W 092°07'3 5.4
2017-Nov-10 15:30N 29°48' W 092°04'3 5.2
2017-Nov-10 15:00N 29°49' W 092°02'3 5.3
2017-Nov-10 14:29N 29°50' W 091°59'4 0.1
2017-Nov-08 23:53N 29°51' W 091°54'3 7.0
2017-Nov-08 23:30N 29°50' W 091°57'0 0.1
2017-Nov-08 23:00N 29°50' W 091°57'0 0.5
2017-Nov-08 22:30N 29°50' W 091°58'3 5.7
2017-Nov-08 22:00N 29°49' W 092°01'3 6.9
2017-Nov-08 21:30N 29°48' W 092°05'3 6.6
2017-Nov-08 21:00N 29°47' W 092°08'3 5.2
2017-Nov-08 20:30N 29°47' W 092°11'0 0.0
2017-Nov-08 20:00N 29°47' W 092°11'2 4.0
2017-Nov-08 19:30N 29°47' W 092°13'3 5.7
2017-Nov-08 19:00N 29°49' W 092°16'3 6.0
2017-Nov-08 18:30N 29°50' W 092°19'  

Dump ship's entire track history